UPS292 ESMS-EFHK
Flight info
| Callsign | UPS292 |
|---|---|
| Flight time | 1h 12m |
| Altitude | 35000 |
| Route | EKRAL L990 KOTAM DCT MOVIS DCT ROGMI DCT ALAMI DCT OKEVU DCT EVADI Y370 DIVAM |
| Aircraft | B763/H-SDE3FGHIM3RWXY/LB1 |
Departure
| Time | 2026-05-07 16:27 |
|---|---|
| Airport | Malmö Sturup Airport (ESMS) |
Arrival
| Time | 2026-05-07 17:40 |
|---|---|
| Airport | Helsinki Vantaa Airport (EFHK) |
| Time | Latitude | Longitude | Altitude | Speed | Heading |
|---|---|---|---|---|---|
| 2026-05-07 15:58 | 55.53881 | 13.36795 | 235 ft | 0 kts | 133° |
| 2026-05-07 16:19 | 55.53884 | 13.36789 | 235 ft | 2 kts | 134° |
| 2026-05-07 16:19 | 55.53895 | 13.36772 | 234 ft | 2 kts | 140° |
| 2026-05-07 16:20 | 55.53903 | 13.36761 | 235 ft | 2 kts | 141° |
| 2026-05-07 16:20 | 55.53915 | 13.36744 | 235 ft | 2 kts | 141° |
| 2026-05-07 16:20 | 55.53926 | 13.36728 | 235 ft | 2 kts | 135° |
| 2026-05-07 16:20 | 55.53933 | 13.36706 | 235 ft | 2 kts | 95° |
| 2026-05-07 16:21 | 55.53933 | 13.36695 | 235 ft | 1 kts | 82° |
| 2026-05-07 16:21 | 55.53933 | 13.36691 | 235 ft | 0 kts | 82° |
| 2026-05-07 16:23 | 55.53934 | 13.36714 | 235 ft | 6 kts | 82° |
| 2026-05-07 16:23 | 55.53946 | 13.36896 | 234 ft | 13 kts | 83° |
| 2026-05-07 16:23 | 55.53957 | 13.37067 | 234 ft | 14 kts | 83° |
| 2026-05-07 16:24 | 55.53979 | 13.37220 | 234 ft | 10 kts | 41° |
| 2026-05-07 16:24 | 55.54029 | 13.37243 | 233 ft | 11 kts | 358° |
| 2026-05-07 16:24 | 55.54121 | 13.37226 | 232 ft | 15 kts | 353° |
| 2026-05-07 16:24 | 55.54232 | 13.37204 | 230 ft | 17 kts | 353° |
| 2026-05-07 16:25 | 55.54418 | 13.37164 | 227 ft | 23 kts | 352° |
| 2026-05-07 16:25 | 55.54528 | 13.37140 | 226 ft | 19 kts | 353° |
| 2026-05-07 16:25 | 55.54662 | 13.37161 | 224 ft | 16 kts | 20° |
| 2026-05-07 16:25 | 55.54761 | 13.37238 | 222 ft | 11 kts | 31° |
| 2026-05-07 16:26 | 55.54786 | 13.37315 | 221 ft | 11 kts | 80° |
| 2026-05-07 16:26 | 55.54742 | 13.37391 | 221 ft | 6 kts | 174° |
| 2026-05-07 16:26 | 55.54708 | 13.37397 | 222 ft | 8 kts | 174° |
| 2026-05-07 16:26 | 55.54544 | 13.37430 | 224 ft | 50 kts | 173° |
| 2026-05-07 16:27 | 55.53979 | 13.37543 | 234 ft | 110 kts | 172° |
| 2026-05-07 16:27 | 55.52678 | 13.37782 | 458 ft | 161 kts | 176° |
| 2026-05-07 16:27 | 55.51929 | 13.37961 | 795 ft | 171 kts | 162° |
| 2026-05-07 16:27 | 55.51023 | 13.39257 | 1502 ft | 176 kts | 114° |
| 2026-05-07 16:28 | 55.51083 | 13.42093 | 2286 ft | 188 kts | 54° |
| 2026-05-07 16:28 | 55.52022 | 13.43751 | 2953 ft | 199 kts | 39° |
| 2026-05-07 16:28 | 55.53074 | 13.45436 | 3565 ft | 218 kts | 41° |
| 2026-05-07 16:28 | 55.53833 | 13.46670 | 4004 ft | 231 kts | 41° |
| 2026-05-07 16:29 | 55.55048 | 13.48632 | 4856 ft | 245 kts | 41° |
| 2026-05-07 16:29 | 55.56326 | 13.50698 | 5775 ft | 256 kts | 42° |
| 2026-05-07 16:29 | 55.58055 | 13.53490 | 7257 ft | 260 kts | 42° |
| 2026-05-07 16:29 | 55.58944 | 13.54926 | 7881 ft | 266 kts | 42° |
| 2026-05-07 16:30 | 55.60316 | 13.57144 | 8883 ft | 272 kts | 41° |
| 2026-05-07 16:30 | 55.61712 | 13.59402 | 9818 ft | 278 kts | 41° |
| 2026-05-07 16:30 | 55.63650 | 13.62538 | 10877 ft | 293 kts | 41° |
| 2026-05-07 16:30 | 55.64669 | 13.64189 | 11230 ft | 306 kts | 41° |
| 2026-05-07 16:31 | 55.66292 | 13.66819 | 11840 ft | 325 kts | 42° |
| 2026-05-07 16:31 | 55.68012 | 13.69610 | 12429 ft | 344 kts | 42° |
| 2026-05-07 16:31 | 55.70441 | 13.73560 | 13240 ft | 367 kts | 42° |
| 2026-05-07 16:31 | 55.72324 | 13.76626 | 14167 ft | 374 kts | 42° |
| 2026-05-07 16:32 | 55.74245 | 13.79757 | 15053 ft | 381 kts | 42° |
| 2026-05-07 16:32 | 55.75537 | 13.81866 | 15600 ft | 385 kts | 42° |
| 2026-05-07 16:32 | 55.77518 | 13.85105 | 16464 ft | 392 kts | 42° |
| 2026-05-07 16:32 | 55.80191 | 13.89482 | 17492 ft | 400 kts | 41° |
| 2026-05-07 16:33 | 55.82262 | 13.92877 | 18266 ft | 405 kts | 41° |
| 2026-05-07 16:33 | 55.84326 | 13.96267 | 19037 ft | 411 kts | 41° |
| 2026-05-07 16:33 | 55.86431 | 13.99730 | 19801 ft | 415 kts | 41° |
| 2026-05-07 16:33 | 55.87846 | 14.02061 | 20302 ft | 417 kts | 41° |
| 2026-05-07 16:34 | 55.89966 | 14.05559 | 21001 ft | 422 kts | 41° |
| 2026-05-07 16:34 | 55.92117 | 14.09111 | 21698 ft | 426 kts | 41° |
| 2026-05-07 16:34 | 55.94301 | 14.12726 | 22361 ft | 430 kts | 41° |
| 2026-05-07 16:34 | 55.96496 | 14.16364 | 23004 ft | 434 kts | 41° |
| 2026-05-07 16:35 | 55.98705 | 14.20030 | 23654 ft | 437 kts | 41° |
| 2026-05-07 16:35 | 56.00906 | 14.23690 | 24250 ft | 441 kts | 41° |
| 2026-05-07 16:35 | 56.03159 | 14.27441 | 24891 ft | 444 kts | 41° |
| 2026-05-07 16:35 | 56.06168 | 14.32462 | 25709 ft | 448 kts | 41° |
| 2026-05-07 16:36 | 56.08435 | 14.36253 | 26286 ft | 451 kts | 41° |
| 2026-05-07 16:36 | 56.10732 | 14.40099 | 26871 ft | 454 kts | 41° |
| 2026-05-07 16:36 | 56.13052 | 14.43992 | 27398 ft | 457 kts | 41° |
| 2026-05-07 16:36 | 56.14609 | 14.46608 | 27763 ft | 459 kts | 41° |
| 2026-05-07 16:37 | 56.16945 | 14.50538 | 28264 ft | 462 kts | 41° |
| 2026-05-07 16:37 | 56.19285 | 14.54483 | 28783 ft | 464 kts | 41° |
| 2026-05-07 16:37 | 56.21630 | 14.58443 | 29266 ft | 466 kts | 41° |
| 2026-05-07 16:37 | 56.23977 | 14.62412 | 29713 ft | 469 kts | 41° |
| 2026-05-07 16:38 | 56.26380 | 14.66484 | 30162 ft | 472 kts | 42° |
| 2026-05-07 16:38 | 56.28767 | 14.70536 | 30548 ft | 474 kts | 42° |
| 2026-05-07 16:38 | 56.31130 | 14.74555 | 31074 ft | 473 kts | 42° |
| 2026-05-07 16:38 | 56.34314 | 14.79983 | 31717 ft | 472 kts | 42° |
| 2026-05-07 16:39 | 56.35907 | 14.82705 | 32021 ft | 472 kts | 42° |
| 2026-05-07 16:39 | 56.38274 | 14.86750 | 32509 ft | 470 kts | 42° |
| 2026-05-07 16:39 | 56.40630 | 14.90788 | 32964 ft | 469 kts | 42° |
| 2026-05-07 16:39 | 56.43737 | 14.96120 | 33580 ft | 467 kts | 42° |
| 2026-05-07 16:40 | 56.46108 | 15.00199 | 34039 ft | 466 kts | 42° |
| 2026-05-07 16:40 | 56.47666 | 15.02882 | 34311 ft | 465 kts | 42° |
| 2026-05-07 16:40 | 56.49993 | 15.06898 | 34696 ft | 464 kts | 42° |
| 2026-05-07 16:40 | 56.53081 | 15.12239 | 35032 ft | 466 kts | 41° |
| 2026-05-07 16:41 | 56.54675 | 15.14997 | 35061 ft | 470 kts | 41° |
| 2026-05-07 16:41 | 56.59476 | 15.23331 | 35077 ft | 484 kts | 41° |
| 2026-05-07 16:42 | 56.64323 | 15.31778 | 35068 ft | 478 kts | 42° |
| 2026-05-07 16:42 | 56.66708 | 15.35951 | 35068 ft | 465 kts | 41° |
| 2026-05-07 16:42 | 56.68995 | 15.39958 | 35069 ft | 459 kts | 41° |
| 2026-05-07 16:43 | 56.74311 | 15.49745 | 35076 ft | 470 kts | 48° |
| 2026-05-07 16:43 | 56.77805 | 15.57328 | 35076 ft | 471 kts | 47° |
| 2026-05-07 16:44 | 56.81962 | 15.66201 | 35077 ft | 468 kts | 47° |
| 2026-05-07 16:44 | 56.86164 | 15.75141 | 35078 ft | 470 kts | 47° |
| 2026-05-07 16:45 | 56.90348 | 15.84055 | 35082 ft | 471 kts | 47° |
| 2026-05-07 16:45 | 56.94574 | 15.93081 | 35087 ft | 470 kts | 47° |
| 2026-05-07 16:46 | 56.99498 | 16.03638 | 35084 ft | 469 kts | 47° |
| 2026-05-07 16:46 | 57.03044 | 16.11269 | 35094 ft | 470 kts | 47° |
| 2026-05-07 16:47 | 57.07271 | 16.20397 | 35090 ft | 470 kts | 47° |
| 2026-05-07 16:47 | 57.11433 | 16.29417 | 35091 ft | 472 kts | 47° |
| 2026-05-07 16:48 | 57.15612 | 16.38509 | 35095 ft | 472 kts | 47° |
| 2026-05-07 16:48 | 57.19803 | 16.47666 | 35101 ft | 473 kts | 47° |
| 2026-05-07 16:49 | 57.24034 | 16.56943 | 35109 ft | 474 kts | 47° |
| 2026-05-07 16:49 | 57.28268 | 16.66261 | 35104 ft | 474 kts | 48° |
| 2026-05-07 16:50 | 57.33252 | 16.77283 | 35107 ft | 476 kts | 48° |
| 2026-05-07 16:50 | 57.37486 | 16.86685 | 35108 ft | 476 kts | 48° |
| 2026-05-07 16:51 | 57.41002 | 16.94518 | 35119 ft | 476 kts | 47° |
| 2026-05-07 16:51 | 57.45212 | 17.03934 | 35110 ft | 478 kts | 48° |
| 2026-05-07 16:52 | 57.50137 | 17.14997 | 35115 ft | 478 kts | 47° |
| 2026-05-07 16:52 | 57.54396 | 17.24606 | 35117 ft | 480 kts | 47° |
| 2026-05-07 16:53 | 57.57923 | 17.32594 | 35112 ft | 480 kts | 48° |
| 2026-05-07 16:53 | 57.62123 | 17.42141 | 35118 ft | 481 kts | 47° |
| 2026-05-07 16:54 | 57.66346 | 17.51778 | 35114 ft | 481 kts | 47° |
| 2026-05-07 16:54 | 57.70591 | 17.61504 | 35109 ft | 482 kts | 47° |
| 2026-05-07 16:55 | 57.74806 | 17.71202 | 35110 ft | 484 kts | 48° |
| 2026-05-07 16:55 | 57.79028 | 17.80954 | 35111 ft | 484 kts | 48° |
| 2026-05-07 16:56 | 57.83943 | 17.92363 | 35104 ft | 484 kts | 48° |
| 2026-05-07 16:56 | 57.90248 | 18.07074 | 35114 ft | 482 kts | 48° |
| 2026-05-07 16:57 | 57.93733 | 18.15242 | 35114 ft | 483 kts | 48° |
| 2026-05-07 16:57 | 57.98626 | 18.26765 | 35103 ft | 484 kts | 48° |
| 2026-05-07 16:58 | 58.02111 | 18.35004 | 35100 ft | 485 kts | 48° |
| 2026-05-07 16:58 | 58.06314 | 18.44978 | 35108 ft | 487 kts | 48° |
| 2026-05-07 16:59 | 58.10519 | 18.54999 | 35114 ft | 487 kts | 48° |
| 2026-05-07 16:59 | 58.15349 | 18.66566 | 35107 ft | 485 kts | 49° |
| 2026-05-07 17:00 | 58.18837 | 18.74951 | 35103 ft | 488 kts | 49° |
| 2026-05-07 17:00 | 58.23035 | 18.85084 | 35093 ft | 491 kts | 49° |
| 2026-05-07 17:01 | 58.27246 | 18.95292 | 35108 ft | 491 kts | 49° |
| 2026-05-07 17:01 | 58.32108 | 19.07133 | 35106 ft | 491 kts | 49° |
| 2026-05-07 17:02 | 58.35625 | 19.15734 | 35102 ft | 494 kts | 49° |
| 2026-05-07 17:02 | 58.39837 | 19.26080 | 35101 ft | 493 kts | 49° |
| 2026-05-07 17:03 | 58.44023 | 19.36403 | 35105 ft | 494 kts | 49° |
| 2026-05-07 17:03 | 58.48199 | 19.46750 | 35106 ft | 496 kts | 49° |
| 2026-05-07 17:04 | 58.52417 | 19.57244 | 35116 ft | 497 kts | 49° |
| 2026-05-07 17:04 | 58.56563 | 19.67605 | 35116 ft | 498 kts | 50° |
| 2026-05-07 17:05 | 58.60782 | 19.78198 | 35108 ft | 499 kts | 50° |
| 2026-05-07 17:05 | 58.64981 | 19.88786 | 35105 ft | 499 kts | 50° |
| 2026-05-07 17:06 | 58.69169 | 19.99394 | 35092 ft | 500 kts | 50° |
| 2026-05-07 17:06 | 58.73368 | 20.10078 | 35102 ft | 502 kts | 50° |
| 2026-05-07 17:07 | 58.77574 | 20.20827 | 35112 ft | 503 kts | 50° |
| 2026-05-07 17:07 | 58.81755 | 20.31562 | 35115 ft | 503 kts | 50° |
| 2026-05-07 17:08 | 58.83848 | 20.36953 | 35255 ft | 503 kts | 50° |
| 2026-05-07 17:08 | 58.86643 | 20.44173 | 35166 ft | 506 kts | 50° |
| 2026-05-07 17:08 | 58.90123 | 20.53194 | 35109 ft | 502 kts | 50° |
| 2026-05-07 17:09 | 58.94281 | 20.64018 | 35118 ft | 503 kts | 50° |
| 2026-05-07 17:09 | 58.99122 | 20.76681 | 35117 ft | 506 kts | 51° |
| 2026-05-07 17:10 | 59.02589 | 20.85794 | 35100 ft | 506 kts | 51° |
| 2026-05-07 17:10 | 59.06478 | 20.97185 | 35110 ft | 509 kts | 55° |
| 2026-05-07 17:11 | 59.10213 | 21.08881 | 35112 ft | 509 kts | 56° |
| 2026-05-07 17:11 | 59.14412 | 21.22226 | 35097 ft | 507 kts | 56° |
| 2026-05-07 17:12 | 59.17466 | 21.32006 | 35104 ft | 509 kts | 56° |
| 2026-05-07 17:12 | 59.21135 | 21.43822 | 35113 ft | 509 kts | 56° |
| 2026-05-07 17:13 | 59.24788 | 21.55659 | 35115 ft | 510 kts | 56° |
| 2026-05-07 17:13 | 59.28428 | 21.67519 | 35123 ft | 510 kts | 57° |
| 2026-05-07 17:14 | 59.32052 | 21.79384 | 35100 ft | 512 kts | 57° |
| 2026-05-07 17:14 | 59.35688 | 21.91350 | 35118 ft | 512 kts | 57° |
| 2026-05-07 17:15 | 59.39302 | 22.03289 | 35050 ft | 506 kts | 57° |
| 2026-05-07 17:15 | 59.41042 | 22.09066 | 34735 ft | 494 kts | 57° |
| 2026-05-07 17:15 | 59.42791 | 22.14880 | 34118 ft | 491 kts | 57° |
| 2026-05-07 17:16 | 59.45113 | 22.22618 | 33320 ft | 497 kts | 57° |
| 2026-05-07 17:16 | 59.46269 | 22.26480 | 32863 ft | 499 kts | 57° |
| 2026-05-07 17:16 | 59.48031 | 22.32380 | 32163 ft | 501 kts | 57° |
| 2026-05-07 17:16 | 59.49790 | 22.38288 | 31459 ft | 502 kts | 57° |
| 2026-05-07 17:17 | 59.51551 | 22.44223 | 30744 ft | 503 kts | 56° |
| 2026-05-07 17:17 | 59.53290 | 22.50104 | 30023 ft | 502 kts | 57° |
| 2026-05-07 17:17 | 59.55050 | 22.56067 | 29329 ft | 501 kts | 57° |
| 2026-05-07 17:17 | 59.56770 | 22.61911 | 28698 ft | 498 kts | 56° |
| 2026-05-07 17:18 | 59.58468 | 22.67701 | 28096 ft | 494 kts | 58° |
| 2026-05-07 17:18 | 59.60183 | 22.73557 | 27482 ft | 490 kts | 57° |
| 2026-05-07 17:18 | 59.61885 | 22.79337 | 26843 ft | 486 kts | 57° |
| 2026-05-07 17:18 | 59.63564 | 22.84979 | 26247 ft | 482 kts | 57° |
| 2026-05-07 17:19 | 59.65247 | 22.90667 | 25646 ft | 479 kts | 57° |
| 2026-05-07 17:19 | 59.66923 | 22.96350 | 25064 ft | 475 kts | 57° |
| 2026-05-07 17:19 | 59.68569 | 23.01946 | 24483 ft | 471 kts | 57° |
| 2026-05-07 17:19 | 59.70197 | 23.07495 | 23912 ft | 467 kts | 57° |
| 2026-05-07 17:20 | 59.71806 | 23.12998 | 23368 ft | 463 kts | 57° |
| 2026-05-07 17:20 | 59.73411 | 23.18498 | 22810 ft | 458 kts | 57° |
| 2026-05-07 17:20 | 59.74997 | 23.23941 | 22260 ft | 454 kts | 57° |
| 2026-05-07 17:20 | 59.76561 | 23.29328 | 21724 ft | 449 kts | 57° |
| 2026-05-07 17:21 | 59.78100 | 23.34639 | 21184 ft | 445 kts | 57° |
| 2026-05-07 17:21 | 59.79635 | 23.39945 | 20654 ft | 440 kts | 56° |
| 2026-05-07 17:21 | 59.81128 | 23.45123 | 20129 ft | 435 kts | 56° |
| 2026-05-07 17:21 | 59.82623 | 23.50318 | 19615 ft | 431 kts | 56° |
| 2026-05-07 17:22 | 59.84101 | 23.55466 | 19103 ft | 426 kts | 56° |
| 2026-05-07 17:22 | 59.85556 | 23.60544 | 18590 ft | 421 kts | 56° |
| 2026-05-07 17:22 | 59.86985 | 23.65542 | 18089 ft | 416 kts | 57° |
| 2026-05-07 17:22 | 59.88385 | 23.70447 | 17589 ft | 411 kts | 57° |
| 2026-05-07 17:23 | 59.89787 | 23.75371 | 17089 ft | 406 kts | 57° |
| 2026-05-07 17:23 | 59.91168 | 23.80232 | 16605 ft | 400 kts | 57° |
| 2026-05-07 17:23 | 59.92514 | 23.84980 | 16137 ft | 395 kts | 57° |
| 2026-05-07 17:23 | 59.93855 | 23.89720 | 15678 ft | 393 kts | 57° |
| 2026-05-07 17:24 | 59.95188 | 23.94442 | 15226 ft | 389 kts | 57° |
| 2026-05-07 17:24 | 59.96501 | 23.99102 | 14779 ft | 386 kts | 57° |
| 2026-05-07 17:24 | 59.97793 | 24.03699 | 14344 ft | 382 kts | 57° |
| 2026-05-07 17:24 | 59.99091 | 24.08322 | 13905 ft | 378 kts | 57° |
| 2026-05-07 17:25 | 60.00351 | 24.12826 | 13480 ft | 373 kts | 58° |
| 2026-05-07 17:25 | 60.01615 | 24.17347 | 12980 ft | 366 kts | 58° |
| 2026-05-07 17:25 | 60.02832 | 24.21710 | 12593 ft | 362 kts | 58° |
| 2026-05-07 17:25 | 60.04428 | 24.27444 | 12069 ft | 361 kts | 58° |
| 2026-05-07 17:26 | 60.05250 | 24.30400 | 11799 ft | 359 kts | 58° |
| 2026-05-07 17:26 | 60.06438 | 24.34685 | 11383 ft | 355 kts | 58° |
| 2026-05-07 17:26 | 60.07629 | 24.38987 | 10963 ft | 350 kts | 58° |
| 2026-05-07 17:26 | 60.08792 | 24.43200 | 10571 ft | 345 kts | 58° |
| 2026-05-07 17:27 | 60.09955 | 24.47417 | 10298 ft | 331 kts | 59° |
| 2026-05-07 17:27 | 60.11025 | 24.51311 | 10003 ft | 312 kts | 58° |
| 2026-05-07 17:27 | 60.12047 | 24.55034 | 9692 ft | 297 kts | 58° |
| 2026-05-07 17:27 | 60.13314 | 24.59653 | 9402 ft | 279 kts | 58° |
| 2026-05-07 17:28 | 60.13940 | 24.61936 | 9280 ft | 276 kts | 58° |
| 2026-05-07 17:28 | 60.14853 | 24.65272 | 9158 ft | 276 kts | 59° |
| 2026-05-07 17:28 | 60.15767 | 24.68613 | 8948 ft | 273 kts | 59° |
| 2026-05-07 17:28 | 60.16671 | 24.71928 | 8770 ft | 272 kts | 59° |
| 2026-05-07 17:29 | 60.17576 | 24.75249 | 8638 ft | 271 kts | 59° |
| 2026-05-07 17:29 | 60.18476 | 24.78562 | 8497 ft | 269 kts | 59° |
| 2026-05-07 17:29 | 60.19372 | 24.81861 | 8313 ft | 268 kts | 59° |
| 2026-05-07 17:29 | 60.20548 | 24.86197 | 8067 ft | 266 kts | 59° |
| 2026-05-07 17:30 | 60.21437 | 24.89484 | 7895 ft | 264 kts | 59° |
| 2026-05-07 17:30 | 60.22024 | 24.91651 | 7722 ft | 265 kts | 59° |
| 2026-05-07 17:30 | 60.22895 | 24.94876 | 7491 ft | 263 kts | 59° |
| 2026-05-07 17:30 | 60.23766 | 24.98111 | 7149 ft | 263 kts | 59° |
| 2026-05-07 17:31 | 60.24643 | 25.01369 | 6910 ft | 260 kts | 59° |
| 2026-05-07 17:31 | 60.25503 | 25.04568 | 6587 ft | 262 kts | 59° |
| 2026-05-07 17:31 | 60.26606 | 25.07383 | 6275 ft | 257 kts | 34° |
| 2026-05-07 17:31 | 60.28767 | 25.09148 | 5925 ft | 252 kts | 13° |
| 2026-05-07 17:32 | 60.29882 | 25.09742 | 5713 ft | 252 kts | 14° |
| 2026-05-07 17:32 | 60.31580 | 25.10650 | 5449 ft | 251 kts | 13° |
| 2026-05-07 17:32 | 60.33287 | 25.11534 | 5098 ft | 253 kts | 13° |
| 2026-05-07 17:32 | 60.34995 | 25.12137 | 4968 ft | 246 kts | 355° |
| 2026-05-07 17:33 | 60.36620 | 25.11231 | 5005 ft | 244 kts | 335° |
| 2026-05-07 17:33 | 60.38188 | 25.09754 | 4568 ft | 257 kts | 335° |
| 2026-05-07 17:33 | 60.39806 | 25.08198 | 4123 ft | 256 kts | 334° |
| 2026-05-07 17:33 | 60.41879 | 25.06141 | 3894 ft | 245 kts | 333° |
| 2026-05-07 17:34 | 60.42895 | 25.05119 | 3550 ft | 248 kts | 333° |
| 2026-05-07 17:34 | 60.44420 | 25.03573 | 3036 ft | 249 kts | 333° |
| 2026-05-07 17:34 | 60.45945 | 25.02019 | 2817 ft | 234 kts | 332° |
| 2026-05-07 17:34 | 60.47301 | 25.00426 | 2882 ft | 218 kts | 317° |
| 2026-05-07 17:35 | 60.48053 | 24.97921 | 2845 ft | 205 kts | 283° |
| 2026-05-07 17:35 | 60.47955 | 24.95219 | 2863 ft | 187 kts | 256° |
| 2026-05-07 17:35 | 60.47563 | 24.92795 | 2792 ft | 171 kts | 253° |
| 2026-05-07 17:35 | 60.47010 | 24.89858 | 2847 ft | 169 kts | 251° |
| 2026-05-07 17:36 | 60.46706 | 24.88404 | 2856 ft | 173 kts | 250° |
| 2026-05-07 17:36 | 60.46175 | 24.86182 | 2810 ft | 176 kts | 237° |
| 2026-05-07 17:36 | 60.45163 | 24.84767 | 2671 ft | 182 kts | 200° |
| 2026-05-07 17:36 | 60.43911 | 24.84805 | 2480 ft | 185 kts | 158° |
| 2026-05-07 17:37 | 60.42810 | 24.86123 | 2275 ft | 183 kts | 149° |
| 2026-05-07 17:37 | 60.41721 | 24.87400 | 2047 ft | 177 kts | 154° |
| 2026-05-07 17:37 | 60.40685 | 24.88534 | 1857 ft | 158 kts | 155° |
| 2026-05-07 17:37 | 60.39474 | 24.89820 | 1565 ft | 141 kts | 156° |
| 2026-05-07 17:38 | 60.38894 | 24.90424 | 1441 ft | 139 kts | 156° |
| 2026-05-07 17:38 | 60.38030 | 24.91315 | 1282 ft | 140 kts | 156° |
| 2026-05-07 17:38 | 60.37165 | 24.92207 | 1101 ft | 138 kts | 156° |
| 2026-05-07 17:38 | 60.36317 | 24.93080 | 918 ft | 135 kts | 156° |
| 2026-05-07 17:39 | 60.35479 | 24.93940 | 739 ft | 134 kts | 156° |
| 2026-05-07 17:39 | 60.34645 | 24.94790 | 578 ft | 133 kts | 156° |
| 2026-05-07 17:39 | 60.33824 | 24.95642 | 385 ft | 133 kts | 156° |
| 2026-05-07 17:39 | 60.32993 | 24.96497 | 200 ft | 133 kts | 156° |
| 2026-05-07 17:40 | 60.32236 | 24.97264 | 163 ft | 91 kts | 151° |
| 2026-05-07 17:40 | 60.31846 | 24.97661 | 158 ft | 54 kts | 154° |
| 2026-05-07 17:40 | 60.31616 | 24.97892 | 157 ft | 31 kts | 152° |
| 2026-05-07 17:40 | 60.31493 | 24.97986 | 157 ft | 13 kts | 186° |
| 2026-05-07 17:41 | 60.31422 | 24.97888 | 158 ft | 9 kts | 238° |
| 2026-05-07 17:41 | 60.31410 | 24.97839 | 158 ft | 0 kts | 244° |
| 2026-05-07 17:41 | 60.31408 | 24.97831 | 158 ft | 1 kts | 239° |
| 2026-05-07 17:41 | 60.31350 | 24.97834 | 159 ft | 14 kts | 155° |
| 2026-05-07 17:42 | 60.31255 | 24.97930 | 159 ft | 12 kts | 153° |
| 2026-05-07 17:42 | 60.31206 | 24.97960 | 159 ft | 4 kts | 194° |
| 2026-05-07 17:42 | 60.31172 | 24.97886 | 159 ft | 11 kts | 242° |
| 2026-05-07 17:42 | 60.31152 | 24.97793 | 159 ft | 4 kts | 264° |
| 2026-05-07 17:43 | 60.31165 | 24.97747 | 159 ft | 4 kts | 319° |
| 2026-05-07 17:43 | 60.31168 | 24.97713 | 159 ft | 2 kts | 253° |
| 2026-05-07 17:43 | 60.31152 | 24.97644 | 160 ft | 5 kts | 244° |
| 2026-05-07 17:43 | 60.31139 | 24.97595 | 160 ft | 0 kts | 243° |